Time;durP1;ratioP1;P1;durP2;ratioP2;P2;SDS_P1;SDS_P2;PMS_P1;PMS_P2;Temp;Humidity;BMP_temperature;BMP_pressure;BME280_temperature;BME280_humidity;BME280_pressure;Samples;Min_cycle;Max_cycle;Signal;HPM_P1;HPM_P2
2022/11/08 00:02:00;;;;;;;6.03;5.00;;;17.60;82.00;;;;;;5058638;28;20233;-68
2022/11/08 00:04:26;;;;;;;5.40;4.90;;;17.60;82.00;;;;;;5030438;28;20202;-68
2022/11/08 00:15:07;;;;;;;6.05;4.78;;;17.60;82.00;;;;;;5050236;28;20213;-68
2022/11/08 00:17:32;;;;;;;5.15;4.60;;;17.60;82.00;;;;;;5050363;28;20178;-68
2022/11/08 00:19:58;;;;;;;5.88;4.95;;;17.60;82.00;;;;;;5052974;28;20198;-67
2022/11/08 00:22:24;;;;;;;5.65;4.63;;;17.60;82.00;;;;;;5037624;28;20344;-68
2022/11/08 00:24:53;;;;;;;5.53;4.60;;;17.60;82.00;;;;;;5037707;28;20206;-68
2022/11/08 00:27:23;;;;;;;5.30;4.80;;;17.60;82.00;;;;;;5054133;28;20661;-68
2022/11/08 00:29:49;;;;;;;5.05;4.43;;;17.60;82.00;;;;;;5054317;28;20213;-68
2022/11/08 00:32:19;;;;;;;4.40;4.00;;;17.60;82.00;;;;;;5054116;28;20174;-68
2022/11/08 00:34:47;;;;;;;5.75;4.85;;;17.60;82.00;;;;;;5054100;28;20248;-68
2022/11/08 00:37:13;;;;;;;5.13;4.45;;;17.60;82.00;;;;;;5037517;28;20186;-68
2022/11/08 00:39:40;;;;;;;5.28;4.78;;;17.60;82.70;;;;;;5053502;28;20583;-68
2022/11/08 00:42:06;;;;;;;6.45;4.68;;;17.60;82.00;;;;;;5053909;28;20202;-68
2022/11/08 00:44:32;;;;;;;4.53;3.88;;;17.60;82.00;;;;;;5053859;28;20234;-68
2022/11/08 00:46:58;;;;;;;4.95;4.40;;;17.60;82.00;;;;;;5053854;28;20302;-67
2022/11/08 00:49:24;;;;;;;4.95;4.43;;;17.60;82.00;;;;;;5053831;28;20193;-68
2022/11/08 00:51:50;;;;;;;4.90;4.40;;;17.60;82.00;;;;;;5053943;28;20175;-67
2022/11/08 00:54:19;;;;;;;4.75;4.10;;;17.60;82.00;;;;;;5053809;28;20186;-68
2022/11/08 00:56:49;;;;;;;4.72;4.25;;;17.60;81.70;;;;;;5037263;28;20217;-68
2022/11/08 00:59:17;;;;;;;5.68;3.78;;;17.60;81.70;;;;;;5053622;28;20182;-68
2022/11/08 01:01:45;;;;;;;5.07;4.57;;;17.60;81.80;;;;;;5036937;28;20654;-67
2022/11/08 01:04:13;;;;;;;4.32;3.90;;;17.60;81.60;;;;;;5053533;28;20194;-68
2022/11/08 01:06:39;;;;;;;4.15;3.75;;;17.50;81.70;;;;;;5054840;28;20236;-68
2022/11/08 01:09:06;;;;;;;4.68;3.85;;;17.50;81.40;;;;;;5053460;28;20214;-68
2022/11/08 01:11:32;;;;;;;4.28;3.88;;;17.60;81.60;;;;;;5053305;28;20248;-68
2022/11/08 01:14:00;;;;;;;4.05;3.63;;;17.50;81.70;;;;;;5053124;28;20609;-68
2022/11/08 01:16:30;;;;;;;5.00;4.38;;;17.50;81.80;;;;;;5053633;28;20178;-68
2022/11/08 01:18:57;;;;;;;3.92;3.53;;;17.60;81.80;;;;;;5036787;28;20243;-68
2022/11/08 01:21:25;;;;;;;4.93;4.32;;;17.50;81.60;;;;;;5054516;28;20228;-68
2022/11/08 01:23:53;;;;;;;4.07;3.67;;;17.50;81.60;;;;;;5053073;28;20179;-68
2022/11/08 01:26:26;;;;;;;4.50;3.75;;;17.50;81.60;;;;;;5070243;28;20229;-68
2022/11/08 01:28:54;;;;;;;4.15;3.50;;;17.60;81.60;;;;;;5036887;28;20226;-68
2022/11/08 01:31:23;;;;;;;4.05;3.58;;;17.50;81.50;;;;;;5051930;28;20202;-68
2022/11/08 01:33:50;;;;;;;4.70;3.85;;;17.50;81.60;;;;;;5036169;28;20278;-68
2022/11/08 01:36:19;;;;;;;3.85;3.35;;;17.50;81.40;;;;;;5036581;28;20194;-68
2022/11/08 01:38:45;;;;;;;3.95;3.55;;;17.60;81.50;;;;;;5052964;28;20186;-68
2022/11/08 01:41:13;;;;;;;3.78;3.47;;;17.50;82.20;;;;;;5052921;28;20205;-68
2022/11/08 01:43:45;;;;;;;4.68;3.80;;;17.50;81.40;;;;;;5035960;28;20197;-68
2022/11/08 01:46:17;;;;;;;3.70;3.40;;;17.50;81.30;;;;;;5052860;28;20217;-68
2022/11/08 01:49:08;;;;;;;3.72;3.17;;;17.50;81.30;;;;;;5069561;28;20182;-68
2022/11/08 01:51:43;;;;;;;4.10;3.70;;;17.50;81.30;;;;;;5052593;28;20811;-68
2022/11/08 01:54:20;;;;;;;3.88;3.47;;;17.50;81.20;;;;;;5053269;28;20273;-68
2022/11/08 01:56:46;;;;;;;4.25;3.13;;;17.60;81.50;;;;;;5050680;28;20183;-68
2022/11/08 01:59:16;;;;;;;3.63;3.33;;;17.50;81.50;;;;;;5035888;28;20171;-68
2022/11/08 02:01:44;;;;;;;3.83;3.42;;;17.50;81.40;;;;;;5094362;22;20312;-67
2022/11/08 02:04:12;;;;;;;3.35;3.05;;;17.50;81.30;;;;;;5073138;28;20217;-65
2022/11/08 02:06:39;;;;;;;3.60;3.30;;;17.50;81.30;;;;;;5072922;28;20190;-66
2022/11/08 02:09:09;;;;;;;3.50;3.15;;;17.50;81.30;;;;;;5090010;28;20185;-66
2022/11/08 02:11:35;;;;;;;3.63;3.22;;;17.50;81.30;;;;;;5073866;28;20281;-65
2022/11/08 02:14:03;;;;;;;3.20;2.90;;;17.50;81.30;;;;;;5072916;28;20226;-66
2022/11/08 02:16:29;;;;;;;4.00;3.17;;;17.50;81.30;;;;;;5073946;28;20673;-66
2022/11/08 02:18:54;;;;;;;3.22;2.92;;;17.50;81.20;;;;;;5073089;28;20185;-66
2022/11/08 02:21:45;;;;;;;3.60;3.00;;;17.50;81.20;;;;;;5072636;28;20213;-66
2022/11/08 02:24:13;;;;;;;3.42;2.97;;;17.50;81.00;;;;;;5073767;28;20170;-66
2022/11/08 02:26:39;;;;;;;3.47;2.90;;;17.50;81.30;;;;;;5072610;28;20174;-67
2022/11/08 02:29:31;;;;;;;3.25;2.95;;;17.50;81.20;;;;;;5073644;28;20170;-67
2022/11/08 02:31:59;;;;;;;2.88;2.67;;;17.50;81.20;;;;;;5055200;28;20223;-66
2022/11/08 02:34:36;;;;;;;3.70;2.60;;;17.50;81.20;;;;;;5072238;28;20232;-66
2022/11/08 02:37:04;;;;;;;3.33;2.90;;;17.50;81.20;;;;;;5072762;28;20208;-67
2022/11/08 02:39:31;;;;;;;4.18;3.38;;;17.50;81.20;;;;;;5073412;28;20173;-66
2022/11/08 02:41:57;;;;;;;2.67;2.47;;;17.50;81.10;;;;;;5071652;28;20206;-66
2022/11/08 02:44:23;;;;;;;3.03;2.65;;;17.50;81.20;;;;;;5073247;28;20254;-66
2022/11/08 02:46:50;;;;;;;3.15;2.85;;;17.50;81.00;;;;;;5055818;28;20202;-66
2022/11/08 02:49:16;;;;;;;2.85;2.38;;;17.50;81.10;;;;;;5073406;28;20192;-66
2022/11/08 02:51:41;;;;;;;3.22;2.25;;;17.50;81.10;;;;;;5072126;28;20208;-66
2022/11/08 02:54:07;;;;;;;2.90;2.55;;;17.50;81.00;;;;;;5072086;28;20181;-67
2022/11/08 02:56:33;;;;;;;2.70;2.50;;;17.50;81.20;;;;;;5072169;28;20177;-67
2022/11/08 02:58:58;;;;;;;2.67;2.47;;;17.50;81.20;;;;;;5072206;28;20239;-66
2022/11/08 03:01:24;;;;;;;2.72;2.53;;;17.50;81.10;;;;;;5071984;28;20213;-66
2022/11/08 03:03:50;;;;;;;2.40;2.08;;;17.50;81.20;;;;;;5071569;28;20174;-66
2022/11/08 03:06:16;;;;;;;2.47;2.28;;;17.50;81.10;;;;;;5055014;28;20300;-66
2022/11/08 03:08:41;;;;;;;2.92;2.63;;;17.50;81.00;;;;;;5072859;28;20579;-66
2022/11/08 03:11:07;;;;;;;2.40;2.20;;;17.50;81.00;;;;;;5071580;28;20201;-66
2022/11/08 03:13:33;;;;;;;2.53;2.33;;;17.50;81.20;;;;;;5071352;28;20177;-67
2022/11/08 03:16:04;;;;;;;2.65;2.25;;;17.50;81.20;;;;;;5054974;28;20193;-66
2022/11/08 03:18:30;;;;;;;2.65;2.42;;;17.50;81.20;;;;;;5071582;28;20253;-66
2022/11/08 03:21:00;;;;;;;2.30;2.05;;;17.50;81.20;;;;;;5071950;28;20269;-66
2022/11/08 03:23:26;;;;;;;2.47;2.28;;;17.50;81.20;;;;;;5072596;28;20261;-67
2022/11/08 03:25:52;;;;;;;2.28;2.08;;;17.50;80.90;;;;;;5054982;28;20229;-66
2022/11/08 03:28:18;;;;;;;3.03;2.33;;;17.50;80.90;;;;;;5072640;28;20263;-67
2022/11/08 03:30:44;;;;;;;2.30;2.10;;;17.50;81.00;;;;;;5071270;28;20205;-66
2022/11/08 03:33:10;;;;;;;2.65;2.45;;;17.50;80.90;;;;;;5054435;28;20203;-66
2022/11/08 03:35:35;;;;;;;2.20;2.00;;;17.50;80.90;;;;;;5071175;28;20286;-66
2022/11/08 03:38:01;;;;;;;1.90;1.80;;;17.50;80.90;;;;;;5072476;28;20178;-66
2022/11/08 03:40:27;;;;;;;2.28;2.08;;;17.50;80.90;;;;;;5071079;28;20324;-66
2022/11/08 03:42:58;;;;;;;2.78;2.40;;;17.50;80.90;;;;;;5070975;28;20186;-66
2022/11/08 03:45:24;;;;;;;2.47;2.28;;;17.50;80.90;;;;;;5072765;28;20206;-66
2022/11/08 03:47:50;;;;;;;2.33;2.13;;;17.50;80.90;;;;;;5071278;28;20182;-65
2022/11/08 03:50:16;;;;;;;2.33;2.13;;;17.50;80.80;;;;;;5070095;28;20201;-66
2022/11/08 03:52:48;;;;;;;2.20;2.00;;;17.50;81.00;;;;;;5061590;28;20186;-66
2022/11/08 03:55:16;;;;;;;2.17;1.92;;;17.50;81.10;;;;;;5050588;28;20182;-66
2022/11/08 03:57:45;;;;;;;2.28;1.80;;;17.50;80.80;;;;;;5050874;28;20201;-66
2022/11/08 04:00:14;;;;;;;3.22;1.98;;;17.50;80.80;;;;;;5050992;28;20215;-67
2022/11/08 04:02:40;;;;;;;1.92;1.73;;;17.50;80.90;;;;;;5051123;28;20186;-67
2022/11/08 04:05:09;;;;;;;1.88;1.77;;;17.50;81.00;;;;;;5034538;28;20210;-66
2022/11/08 04:07:35;;;;;;;2.50;2.08;;;17.50;81.00;;;;;;5051016;28;20254;-67
2022/11/08 04:10:02;;;;;;;1.80;1.70;;;17.50;80.90;;;;;;5050945;28;20194;-67
2022/11/08 04:15:16;;;;;;;1.85;1.75;;;17.50;80.80;;;;;;5051151;28;20194;-66
2022/11/08 04:23:20;;;;;;;2.10;1.90;;;17.50;80.70;;;;;;5050601;28;20588;-66
2022/11/08 04:25:57;;;;;;;1.80;1.70;;;17.50;80.80;;;;;;5050588;28;20210;-66
2022/11/08 04:28:35;;;;;;;2.05;1.85;;;17.50;80.80;;;;;;5051082;28;20167;-66
2022/11/08 04:31:14;;;;;;;1.90;1.80;;;17.50;80.80;;;;;;5034269;28;20206;-66
2022/11/08 04:33:40;;;;;;;1.85;1.65;;;17.50;80.70;;;;;;5050474;28;20167;-66
2022/11/08 04:36:11;;;;;;;2.47;1.90;;;17.50;80.60;;;;;;5034441;28;20236;-66
2022/11/08 04:38:37;;;;;;;1.63;1.52;;;17.50;80.50;;;;;;5051951;28;20177;-66
2022/11/08 04:41:12;;;;;;;1.80;1.70;;;17.50;80.60;;;;;;5034026;28;20206;-66
2022/11/08 04:43:39;;;;;;;1.67;1.58;;;17.50;80.40;;;;;;5051156;28;20182;-67
2022/11/08 04:46:17;;;;;;;2.03;1.80;;;17.50;80.40;;;;;;5050559;28;20301;-66
2022/11/08 04:48:44;;;;;;;1.90;1.80;;;17.50;80.60;;;;;;5033886;28;20178;-66
2022/11/08 04:51:17;;;;;;;2.42;2.00;;;17.50;80.60;;;;;;5034101;28;20206;-66
2022/11/08 04:53:44;;;;;;;2.20;2.00;;;17.50;80.60;;;;;;5033726;28;20170;-66
2022/11/08 04:56:13;;;;;;;2.17;1.90;;;17.50;80.50;;;;;;5033881;28;20214;-66
2022/11/08 04:58:49;;;;;;;1.85;1.75;;;17.40;80.40;;;;;;5033860;28;20292;-66
2022/11/08 05:01:18;;;;;;;2.08;1.85;;;17.40;80.50;;;;;;5033915;28;20214;-66
2022/11/08 05:03:47;;;;;;;1.95;1.80;;;17.50;80.60;;;;;;5050227;28;20190;-66
2022/11/08 05:06:23;;;;;;;2.40;1.88;;;17.40;80.50;;;;;;5036712;28;20668;-66
2022/11/08 05:08:49;;;;;;;2.03;1.83;;;17.40;80.40;;;;;;5037546;28;20181;-66
2022/11/08 05:11:22;;;;;;;1.70;1.60;;;17.40;80.30;;;;;;5054283;28;20198;-66
2022/11/08 05:13:50;;;;;;;1.73;1.58;;;17.50;81.20;;;;;;5055086;28;20197;-66
2022/11/08 05:16:22;;;;;;;2.00;1.80;;;17.40;80.20;;;;;;5053960;28;20604;-67
2022/11/08 05:18:48;;;;;;;2.97;1.83;;;17.40;80.20;;;;;;5037559;28;20186;-67
2022/11/08 05:24:04;;;;;;;2.10;1.90;;;17.40;80.20;;;;;;5053504;28;20178;-66
2022/11/08 05:26:34;;;;;;;2.20;1.98;;;17.40;80.30;;;;;;5053363;28;20206;-65
2022/11/08 05:29:00;;;;;;;1.95;1.85;;;17.40;80.30;;;;;;5036933;28;20182;-67
2022/11/08 05:31:26;;;;;;;2.08;1.90;;;17.40;80.40;;;;;;5053701;28;20217;-66
2022/11/08 05:33:51;;;;;;;2.28;1.80;;;17.40;80.40;;;;;;5036613;28;20186;-66
2022/11/08 05:36:18;;;;;;;2.30;2.08;;;17.40;80.30;;;;;;5036967;28;20182;-66
2022/11/08 05:38:44;;;;;;;1.90;1.73;;;17.40;80.30;;;;;;5037037;28;20190;-67
2022/11/08 05:41:18;;;;;;;2.05;1.90;;;17.40;80.30;;;;;;5053709;28;20233;-66
2022/11/08 05:43:53;;;;;;;1.95;1.85;;;17.40;80.20;;;;;;5054507;28;20195;-66
2022/11/08 05:46:21;;;;;;;2.25;2.05;;;17.40;80.10;;;;;;5054338;28;20205;-66
2022/11/08 05:48:47;;;;;;;2.33;2.13;;;17.40;80.10;;;;;;5053605;28;20265;-66
2022/11/08 05:51:16;;;;;;;2.10;1.80;;;17.40;80.00;;;;;;5053132;28;20210;-67
2022/11/08 05:53:42;;;;;;;2.58;2.35;;;17.40;79.90;;;;;;5052811;28;20223;-66
2022/11/08 05:56:08;;;;;;;2.08;1.98;;;17.40;79.90;;;;;;5053198;28;20213;-65
2022/11/08 05:58:35;;;;;;;2.33;2.13;;;17.40;80.00;;;;;;5072089;28;20174;-67
2022/11/08 06:01:11;;;;;;;2.20;2.05;;;17.40;79.60;;;;;;5061249;28;20214;-67
2022/11/08 06:03:38;;;;;;;2.25;2.00;;;17.40;80.00;;;;;;5069607;28;20241;-66
2022/11/08 06:06:13;;;;;;;1.80;1.70;;;17.40;80.00;;;;;;5072981;28;20209;-66
2022/11/08 06:08:40;;;;;;;2.28;2.08;;;17.40;80.10;;;;;;5073323;28;20177;-66
2022/11/08 06:11:10;;;;;;;2.22;2.13;;;17.40;80.10;;;;;;5073259;28;20194;-66
2022/11/08 06:13:36;;;;;;;2.15;1.98;;;17.40;80.00;;;;;;5072628;28;20197;-66
2022/11/08 06:16:05;;;;;;;1.92;1.83;;;17.40;80.10;;;;;;5053378;28;20185;-66
2022/11/08 06:18:33;;;;;;;1.88;1.77;;;17.40;80.00;;;;;;5070671;28;20181;-66
2022/11/08 06:21:00;;;;;;;2.08;1.98;;;17.40;80.00;;;;;;5072202;28;20201;-67
2022/11/08 06:23:27;;;;;;;2.40;2.20;;;17.40;80.00;;;;;;5073202;28;20177;-66
2022/11/08 06:25:53;;;;;;;2.28;2.08;;;17.40;79.80;;;;;;5072523;28;20267;-67
2022/11/08 06:28:19;;;;;;;2.53;2.33;;;17.40;79.90;;;;;;5073287;28;20180;-67
2022/11/08 06:30:45;;;;;;;2.83;2.28;;;17.40;79.80;;;;;;5072242;28;20202;-66
2022/11/08 06:33:11;;;;;;;2.80;2.17;;;17.40;79.70;;;;;;5071635;28;20229;-67
2022/11/08 06:35:37;;;;;;;2.65;2.40;;;17.40;79.70;;;;;;5071991;28;20213;-66
2022/11/08 06:38:03;;;;;;;2.55;2.35;;;17.40;79.60;;;;;;5068696;28;20205;-66
2022/11/08 06:40:31;;;;;;;2.85;2.40;;;17.40;79.60;;;;;;5071819;28;20202;-66
2022/11/08 06:42:58;;;;;;;3.97;2.65;;;17.40;79.50;;;;;;5071482;28;20336;-66
2022/11/08 06:45:27;;;;;;;2.83;2.58;;;17.40;79.50;;;;;;5071796;28;20213;-66
2022/11/08 06:48:01;;;;;;;2.50;2.30;;;17.40;79.60;;;;;;5071732;28;20182;-66
2022/11/08 06:50:29;;;;;;;2.40;2.20;;;17.40;79.70;;;;;;5054941;28;20221;-66
2022/11/08 06:53:11;;;;;;;2.58;2.38;;;17.40;79.70;;;;;;5054598;28;20221;-66
2022/11/08 06:55:37;;;;;;;2.63;2.42;;;17.40;79.70;;;;;;5071844;28;20209;-66
2022/11/08 06:58:04;;;;;;;2.85;2.40;;;17.40;79.70;;;;;;5071398;28;20230;-66
2022/11/08 07:00:30;;;;;;;2.80;2.40;;;17.40;79.70;;;;;;5054807;28;20233;-66
2022/11/08 07:03:02;;;;;;;2.95;2.40;;;17.40;79.70;;;;;;5054572;28;20186;-66
2022/11/08 07:05:30;;;;;;;2.78;2.58;;;17.40;79.60;;;;;;5071289;28;20210;-67
2022/11/08 07:08:00;;;;;;;2.75;2.38;;;17.40;79.50;;;;;;5071342;28;20186;-66
2022/11/08 07:10:31;;;;;;;3.03;2.72;;;17.40;79.50;;;;;;5071294;28;20360;-66
2022/11/08 07:13:12;;;;;;;3.13;2.83;;;17.40;79.40;;;;;;5054664;28;20182;-67
2022/11/08 07:15:39;;;;;;;3.53;2.97;;;17.40;79.30;;;;;;5071104;28;20224;-66
2022/11/08 07:18:12;;;;;;;3.00;2.67;;;17.40;79.30;;;;;;5070917;28;20189;-66
2022/11/08 07:20:40;;;;;;;3.63;2.70;;;17.40;79.30;;;;;;5071236;28;20216;-66
2022/11/08 07:23:07;;;;;;;3.47;2.60;;;17.40;79.40;;;;;;5054363;28;20181;-66
2022/11/08 07:25:33;;;;;;;3.50;2.90;;;17.40;79.20;;;;;;5054189;28;20220;-66
2022/11/08 07:28:03;;;;;;;3.35;2.53;;;17.40;79.50;;;;;;5070651;28;20231;-66
2022/11/08 07:30:30;;;;;;;2.65;2.45;;;17.40;79.30;;;;;;5070474;28;20209;-66
2022/11/08 07:32:56;;;;;;;2.75;2.55;;;17.40;79.20;;;;;;5070813;28;20185;-66
2022/11/08 07:35:23;;;;;;;3.25;2.90;;;17.40;79.20;;;;;;5071064;28;20604;-66
2022/11/08 07:37:49;;;;;;;3.53;2.95;;;17.40;79.60;;;;;;5072022;28;20185;-66
2022/11/08 07:40:15;;;;;;;3.08;2.78;;;17.40;79.30;;;;;;5070895;28;20210;-67
2022/11/08 07:42:41;;;;;;;3.88;3.00;;;17.40;79.20;;;;;;5053685;28;20259;-66
2022/11/08 07:45:11;;;;;;;3.30;3.00;;;17.40;79.20;;;;;;5071068;28;20201;-66
2022/11/08 07:47:37;;;;;;;4.40;3.00;;;17.50;79.20;;;;;;5070685;28;20186;-66
2022/11/08 07:50:03;;;;;;;2.95;2.60;;;17.50;79.30;;;;;;5070622;28;20322;-67
2022/11/08 07:52:29;;;;;;;3.05;2.67;;;17.40;79.20;;;;;;5070541;28;20182;-66
2022/11/08 07:54:55;;;;;;;3.65;3.00;;;17.50;79.20;;;;;;5054016;28;20193;-66
2022/11/08 07:57:21;;;;;;;3.05;2.72;;;17.50;79.30;;;;;;5070586;28;20196;-66
2022/11/08 07:59:46;;;;;;;2.78;2.58;;;17.40;79.20;;;;;;5070500;28;20184;-66
2022/11/08 08:02:14;;;;;;;4.28;2.72;;;17.50;79.30;;;;;;5060684;22;20235;-69
2022/11/08 08:04:40;;;;;;;2.80;2.58;;;17.50;79.30;;;;;;5009981;28;20212;-69
2022/11/08 08:07:06;;;;;;;3.35;3.05;;;17.50;79.30;;;;;;4994528;28;20192;-69
2022/11/08 08:09:35;;;;;;;3.08;2.47;;;17.50;79.40;;;;;;5010959;28;20251;-70
2022/11/08 08:12:01;;;;;;;2.67;2.47;;;17.50;79.40;;;;;;5012128;28;20210;-69
2022/11/08 08:14:27;;;;;;;3.50;2.60;;;17.50;79.50;;;;;;5011831;28;20184;-69
2022/11/08 08:16:53;;;;;;;3.00;2.58;;;17.40;79.50;;;;;;4994428;28;20182;-69
2022/11/08 08:19:19;;;;;;;3.08;2.60;;;17.40;79.40;;;;;;5010716;28;20188;-69
2022/11/08 08:21:44;;;;;;;2.65;2.45;;;17.50;79.60;;;;;;5011956;28;20207;-69
2022/11/08 08:24:10;;;;;;;3.03;2.72;;;17.40;79.50;;;;;;5010548;28;20188;-69
2022/11/08 08:26:37;;;;;;;3.15;2.85;;;17.40;79.40;;;;;;5028374;28;20726;-69
2022/11/08 08:29:03;;;;;;;2.58;2.20;;;17.50;79.50;;;;;;5011956;28;20280;-70
2022/11/08 08:31:28;;;;;;;2.42;2.22;;;17.50;79.60;;;;;;5013411;28;20208;-69
2022/11/08 08:33:54;;;;;;;3.92;2.17;;;17.50;79.50;;;;;;5010462;28;20180;-69
2022/11/08 08:36:20;;;;;;;2.80;2.50;;;17.50;79.50;;;;;;5011920;28;20238;-70
2022/11/08 08:38:46;;;;;;;2.47;2.28;;;17.50;79.40;;;;;;5027247;28;20197;-69
2022/11/08 08:41:11;;;;;;;2.50;2.30;;;17.50;79.50;;;;;;5030311;28;20217;-69
2022/11/08 08:43:37;;;;;;;2.60;2.40;;;17.50;79.40;;;;;;5013977;28;20278;-69
2022/11/08 08:46:05;;;;;;;2.65;2.45;;;17.50;79.40;;;;;;5014202;28;20224;-69
2022/11/08 08:48:32;;;;;;;2.72;2.40;;;17.50;79.30;;;;;;5014451;28;20212;-69
2022/11/08 08:50:58;;;;;;;3.13;2.83;;;17.50;79.40;;;;;;5015323;28;20335;-69
2022/11/08 08:53:25;;;;;;;2.72;2.50;;;17.50;79.50;;;;;;5014020;28;20172;-69
2022/11/08 08:55:51;;;;;;;2.80;2.42;;;17.50;79.40;;;;;;5030761;28;20211;-69
2022/11/08 08:58:19;;;;;;;2.55;2.30;;;17.50;79.50;;;;;;5014249;28;20207;-69
2022/11/08 09:00:45;;;;;;;2.90;2.60;;;17.50;79.50;;;;;;5013952;28;20224;-69
2022/11/08 09:03:12;;;;;;;2.80;2.30;;;17.50;79.40;;;;;;5030510;28;20223;-69
2022/11/08 09:05:45;;;;;;;2.40;2.20;;;17.50;79.40;;;;;;5030274;28;20283;-69
2022/11/08 09:08:13;;;;;;;2.65;2.40;;;17.60;79.60;;;;;;5030558;28;20195;-69
2022/11/08 09:10:39;;;;;;;3.60;2.40;;;17.50;79.50;;;;;;5013889;28;20196;-69
2022/11/08 09:13:05;;;;;;;2.97;2.33;;;17.60;79.70;;;;;;5013697;28;20188;-69
2022/11/08 09:15:30;;;;;;;2.40;2.20;;;17.60;79.60;;;;;;4997446;28;20567;-69
2022/11/08 09:17:57;;;;;;;2.60;2.40;;;17.60;79.60;;;;;;5014904;28;20191;-69
2022/11/08 09:20:24;;;;;;;2.63;2.20;;;17.60;79.70;;;;;;5013665;28;20200;-69
2022/11/08 09:22:50;;;;;;;3.20;2.58;;;17.50;79.60;;;;;;4997418;28;20192;-69
2022/11/08 09:25:17;;;;;;;3.40;2.30;;;17.60;79.70;;;;;;4997401;28;20212;-69
2022/11/08 09:27:42;;;;;;;2.38;2.17;;;17.50;79.60;;;;;;5013468;28;20176;-69
2022/11/08 09:30:08;;;;;;;2.70;2.42;;;17.60;79.70;;;;;;5013625;28;20195;-70
2022/11/08 09:32:35;;;;;;;2.35;2.00;;;17.60;79.70;;;;;;5013304;28;20185;-69
2022/11/08 09:35:00;;;;;;;2.20;2.00;;;17.60;79.80;;;;;;5014799;28;20271;-70
2022/11/08 09:37:27;;;;;;;3.17;2.22;;;17.50;79.70;;;;;;5030010;28;20248;-70
2022/11/08 09:39:53;;;;;;;2.38;1.98;;;17.60;79.70;;;;;;5013341;28;20184;-70
2022/11/08 09:42:40;;;;;;;2.78;2.03;;;17.60;79.70;;;;;;4996883;28;20208;-69
2022/11/08 09:45:29;;;;;;;3.67;2.30;;;17.60;79.60;;;;;;4997255;28;20220;-69
2022/11/08 09:48:01;;;;;;;2.42;2.22;;;17.60;79.50;;;;;;5029697;28;20187;-69
2022/11/08 09:50:43;;;;;;;3.33;2.05;;;17.60;79.20;;;;;;5013065;28;20192;-69
2022/11/08 09:53:34;;;;;;;2.33;2.08;;;17.60;79.40;;;;;;4995681;28;20210;-69
2022/11/08 09:56:20;;;;;;;3.05;2.22;;;17.60;79.10;;;;;;5013182;28;20180;-69
2022/11/08 09:59:18;;;;;;;2.22;1.92;;;17.60;79.30;;;;;;5014448;28;20746;-69
2022/11/08 10:01:44;;;;;;;2.40;2.20;;;17.60;79.40;;;;;;5012879;28;20228;-68
2022/11/08 10:04:24;;;;;;;2.92;2.25;;;17.60;79.10;;;;;;4997238;28;20187;-70
2022/11/08 10:07:22;;;;;;;2.20;1.90;;;17.60;79.10;;;;;;5013625;28;20195;-69
2022/11/08 10:10:22;;;;;;;1.92;1.73;;;17.60;79.10;;;;;;4996855;28;20547;-69
2022/11/08 10:13:33;;;;;;;2.25;1.80;;;17.70;79.20;;;;;;5012964;28;20234;-70
2022/11/08 10:16:37;;;;;;;2.00;1.80;;;17.70;79.10;;;;;;5013134;28;20644;-70
2022/11/08 10:19:23;;;;;;;1.83;1.50;;;17.70;78.90;;;;;;5006133;28;20672;-70
2022/11/08 10:22:03;;;;;;;1.67;1.58;;;17.70;78.90;;;;;;5013035;28;20204;-70
2022/11/08 10:24:53;;;;;;;2.05;1.85;;;17.70;79.00;;;;;;5013064;28;20262;-69
2022/11/08 10:27:42;;;;;;;2.05;1.83;;;17.60;78.70;;;;;;5012902;28;20172;-69
2022/11/08 10:30:22;;;;;;;2.08;1.88;;;17.70;78.60;;;;;;5012995;28;20176;-70
2022/11/08 10:32:53;;;;;;;1.80;1.70;;;17.70;78.60;;;;;;5014020;28;20175;-70
2022/11/08 10:35:33;;;;;;;1.77;1.67;;;17.70;78.30;;;;;;4996402;28;20176;-69
2022/11/08 10:38:02;;;;;;;2.10;1.90;;;17.70;78.30;;;;;;5012941;28;20189;-70
2022/11/08 10:40:42;;;;;;;2.25;1.80;;;17.70;78.50;;;;;;5012097;28;20218;-69
2022/11/08 10:43:33;;;;;;;1.80;1.70;;;17.70;78.50;;;;;;5035094;28;20649;-69
2022/11/08 10:45:58;;;;;;;2.25;2.05;;;17.70;78.30;;;;;;5053377;28;20289;-69
2022/11/08 10:48:24;;;;;;;2.95;2.13;;;17.70;78.30;;;;;;5053352;28;20185;-68
2022/11/08 10:50:51;;;;;;;2.33;1.90;;;17.70;78.30;;;;;;5052383;28;20412;-69
2022/11/08 10:53:31;;;;;;;3.03;2.30;;;17.70;78.30;;;;;;5035428;28;20650;-69
2022/11/08 10:56:04;;;;;;;3.97;2.40;;;17.70;78.30;;;;;;5052401;28;20240;-69
2022/11/08 10:58:42;;;;;;;3.55;3.00;;;17.70;78.20;;;;;;5052097;28;20186;-69
2022/11/08 11:01:23;;;;;;;4.25;3.38;;;17.70;78.90;;;;;;5051834;28;20254;-69
2022/11/08 11:03:51;;;;;;;4.80;3.50;;;17.80;78.20;;;;;;5051853;28;20196;-69
2022/11/08 11:06:31;;;;;;;5.50;4.13;;;17.80;78.40;;;;;;5036395;28;20223;-69
2022/11/08 11:09:20;;;;;;;4.22;3.83;;;17.80;78.40;;;;;;5015376;28;20211;-70
2022/11/08 11:11:59;;;;;;;5.32;4.03;;;17.80;78.30;;;;;;5029445;28;20200;-70
2022/11/08 11:14:25;;;;;;;5.22;4.30;;;17.80;77.80;;;;;;5015154;28;20274;-69
2022/11/08 11:17:13;;;;;;;5.50;4.10;;;17.80;78.30;;;;;;5012390;28;20191;-69
2022/11/08 11:19:50;;;;;;;5.15;4.43;;;17.80;77.90;;;;;;5015342;28;20559;-69
2022/11/08 11:22:32;;;;;;;5.93;4.53;;;17.80;78.00;;;;;;5009051;28;20204;-69
2022/11/08 11:25:12;;;;;;;5.82;4.85;;;17.80;78.20;;;;;;5024242;28;20235;-69
2022/11/08 11:27:40;;;;;;;6.32;5.00;;;17.80;78.40;;;;;;5031593;28;20242;-69
2022/11/08 11:30:25;;;;;;;5.28;4.65;;;17.80;78.40;;;;;;5032715;28;20214;-70
2022/11/08 11:33:19;;;;;;;5.53;4.43;;;17.80;78.00;;;;;;5011869;28;20188;-68
2022/11/08 11:36:21;;;;;;;5.38;4.82;;;17.80;77.90;;;;;;5024215;28;20228;-69
2022/11/08 11:38:59;;;;;;;7.28;5.50;;;17.80;78.40;;;;;;5015108;28;20183;-69
2022/11/08 11:41:34;;;;;;;7.43;5.80;;;17.80;78.30;;;;;;5014838;28;20626;-69
2022/11/08 11:44:34;;;;;;;6.45;5.75;;;17.80;78.40;;;;;;5014807;28;20248;-69
2022/11/08 11:47:11;;;;;;;7.15;5.25;;;17.80;78.40;;;;;;5002848;28;20192;-69
2022/11/08 11:49:40;;;;;;;6.70;5.97;;;17.80;78.40;;;;;;5031502;28;20182;-68
2022/11/08 11:52:16;;;;;;;7.40;5.60;;;17.80;78.40;;;;;;5031176;28;20204;-70
2022/11/08 11:54:45;;;;;;;6.85;5.60;;;17.80;78.40;;;;;;5030910;28;20228;-69
2022/11/08 11:57:44;;;;;;;8.45;6.57;;;17.80;78.40;;;;;;5031312;28;20555;-69
2022/11/08 12:00:13;;;;;;;9.75;7.43;;;17.80;78.40;;;;;;5031247;28;20183;-68
2022/11/08 12:03:13;;;;;;;10.40;6.75;;;17.80;78.40;;;;;;5031036;28;20232;-69
2022/11/08 12:06:17;;;;;;;6.63;5.93;;;17.80;78.70;;;;;;5011420;28;20254;-70
2022/11/08 12:08:58;;;;;;;7.05;5.22;;;17.80;78.40;;;;;;5011437;28;20226;-69
2022/11/08 12:11:50;;;;;;;7.80;6.05;;;17.80;78.60;;;;;;5011194;28;20299;-69
2022/11/08 12:14:55;;;;;;;11.05;6.75;;;17.80;78.60;;;;;;5012347;28;20179;-69
2022/11/08 12:17:51;;;;;;;8.35;6.47;;;17.90;78.70;;;;;;5031810;28;20281;-69
2022/11/08 12:20:41;;;;;;;9.77;6.75;;;17.90;78.50;;;;;;5015199;28;20195;-69
2022/11/08 12:23:42;;;;;;;9.82;7.40;;;17.90;78.60;;;;;;5015098;28;20184;-69
2022/11/08 12:26:20;;;;;;;7.55;6.57;;;17.90;78.70;;;;;;5031613;28;20247;-70
2022/11/08 12:29:10;;;;;;;7.28;6.50;;;17.90;79.00;;;;;;5015254;28;20172;-69
2022/11/08 12:32:03;;;;;;;10.13;7.20;;;17.80;78.60;;;;;;5015003;28;20211;-69
2022/11/08 12:35:21;;;;;;;8.98;6.28;;;17.90;78.50;;;;;;5015079;28;20538;-70
2022/11/08 12:38:14;;;;;;;8.55;6.80;;;17.90;78.40;;;;;;4982632;28;20192;-69
2022/11/08 12:41:17;;;;;;;8.35;6.82;;;17.90;78.90;;;;;;5017967;28;20206;-69
2022/11/08 12:44:27;;;;;;;7.45;6.38;;;17.90;78.30;;;;;;5015427;28;20199;-69
2022/11/08 12:47:29;;;;;;;8.20;7.03;;;17.90;78.40;;;;;;5032378;28;20214;-70
2022/11/08 12:50:45;;;;;;;9.02;6.70;;;17.90;78.60;;;;;;5018080;28;20700;-69
2022/11/08 12:53:38;;;;;;;8.48;6.65;;;17.90;78.40;;;;;;5034060;28;20188;-69
2022/11/08 12:56:13;;;;;;;10.27;6.97;;;17.90;78.50;;;;;;5033834;28;20262;-70
2022/11/08 12:58:48;;;;;;;9.30;8.00;;;17.90;78.60;;;;;;5017034;28;20167;-70
2022/11/08 13:01:17;;;;;;;10.63;7.95;;;17.90;78.90;;;;;;5018259;28;20215;-70
2022/11/08 13:03:44;;;;;;;9.45;7.28;;;17.90;78.90;;;;;;5033743;28;20710;-69
2022/11/08 13:06:46;;;;;;;8.73;7.53;;;17.90;78.80;;;;;;5033758;28;20305;-70
2022/11/08 13:09:33;;;;;;;8.30;6.85;;;17.90;78.80;;;;;;5017331;28;20650;-69
2022/11/08 13:12:29;;;;;;;8.15;6.95;;;17.90;78.70;;;;;;5017654;28;20215;-69
2022/11/08 13:14:58;;;;;;;8.13;6.65;;;17.90;78.90;;;;;;5035060;28;20251;-69
2022/11/08 13:17:27;;;;;;;8.43;6.93;;;17.90;78.80;;;;;;5034136;28;20175;-70
2022/11/08 13:19:56;;;;;;;8.82;7.25;;;17.90;78.70;;;;;;5017489;28;20192;-69
2022/11/08 13:22:28;;;;;;;8.88;7.25;;;17.90;78.90;;;;;;5035042;28;20200;-69
2022/11/08 13:25:00;;;;;;;9.73;7.13;;;17.90;78.80;;;;;;5033634;28;20219;-69
2022/11/08 13:27:37;;;;;;;7.07;6.25;;;17.90;79.30;;;;;;5032630;28;20218;-69
2022/11/08 13:30:15;;;;;;;7.28;6.07;;;17.90;79.00;;;;;;5033789;28;20179;-69
2022/11/08 13:33:20;;;;;;;8.77;7.35;;;18.00;79.30;;;;;;5035156;28;20260;-68